createdAt,value
2022-09-12T00:00:17.066Z,69
2022-09-12T00:05:17.085Z,69
2022-09-12T00:10:17.067Z,70
2022-09-12T00:15:17.067Z,70
2022-09-12T00:20:17.359Z,70
2022-09-12T00:25:17.094Z,70
2022-09-12T00:30:17.147Z,70
2022-09-12T00:35:17.104Z,70
2022-09-12T00:40:17.232Z,70
2022-09-12T00:45:17.093Z,71
2022-09-12T00:50:20.589Z,71
2022-09-12T00:55:20.079Z,71
2022-09-12T01:00:17.091Z,71
2022-09-12T01:05:20.065Z,70
2022-09-12T01:10:20.058Z,70
2022-09-12T01:15:20.042Z,70
2022-09-12T01:20:20.065Z,70
2022-09-12T01:25:20.689Z,70
2022-09-12T01:30:20.081Z,69
2022-09-12T01:35:20.102Z,69
2022-09-12T01:40:17.138Z,69
2022-09-12T01:45:20.111Z,69
2022-09-12T01:50:20.080Z,69
2022-09-12T01:55:20.120Z,69
2022-09-12T02:00:20.489Z,69
2022-09-12T02:05:20.079Z,69
2022-09-12T02:10:17.145Z,69
2022-09-12T02:15:20.105Z,69
2022-09-12T02:20:31.018Z,69
2022-09-12T02:25:17.166Z,69
2022-09-12T02:30:17.135Z,69
2022-09-12T02:35:17.618Z,69
2022-09-12T02:40:20.188Z,69
2022-09-12T02:45:20.096Z,69
2022-09-12T02:50:20.113Z,69
2022-09-12T02:55:17.139Z,68
2022-09-12T03:00:20.119Z,68
2022-09-12T03:05:20.470Z,68
2022-09-12T03:10:20.139Z,69
2022-09-12T03:15:20.131Z,69
2022-09-12T03:20:20.103Z,69
2022-09-12T03:25:20.116Z,69
2022-09-12T03:30:20.166Z,70
2022-09-12T03:35:20.881Z,70
2022-09-12T03:40:20.675Z,70
2022-09-12T03:45:20.115Z,70
2022-09-12T03:50:20.104Z,71
2022-09-12T03:55:20.156Z,71
2022-09-12T04:00:20.034Z,71
2022-09-12T04:05:19.374Z,71
2022-09-12T04:10:19.396Z,71
2022-09-12T04:15:19.941Z,72
2022-09-12T04:20:19.392Z,72
2022-09-12T04:25:16.273Z,72
2022-09-12T04:30:19.454Z,72
2022-09-12T04:35:19.471Z,72
2022-09-12T04:40:19.433Z,73
2022-09-12T04:45:19.436Z,73
2022-09-12T04:50:19.906Z,73
2022-09-12T04:55:16.448Z,74
2022-09-12T05:00:16.462Z,74
2022-09-12T05:05:16.466Z,74
2022-09-12T05:10:16.459Z,74
2022-09-12T05:15:16.454Z,74
2022-09-12T05:20:16.472Z,74
2022-09-12T05:25:16.850Z,75
2022-09-12T05:30:16.473Z,75
2022-09-12T05:35:16.454Z,75
2022-09-12T05:40:16.499Z,76
2022-09-12T05:45:19.418Z,76
2022-09-12T05:50:16.453Z,77
2022-09-12T05:55:16.433Z,77
2022-09-12T06:00:16.863Z,77
2022-09-12T06:05:16.474Z,77
2022-09-12T06:10:16.485Z,77
2022-09-12T06:15:16.484Z,78
2022-09-12T06:20:19.464Z,78
2022-09-12T06:25:16.549Z,78
2022-09-12T06:30:16.514Z,78
2022-09-12T06:35:16.905Z,79
2022-09-12T06:40:16.651Z,79
2022-09-12T06:45:19.452Z,79
2022-09-12T06:50:16.511Z,80
2022-09-12T06:55:19.917Z,80
2022-09-12T07:00:16.490Z,80
2022-09-12T07:05:20.062Z,81
2022-09-12T07:10:22.290Z,81
2022-09-12T07:15:19.528Z,81
2022-09-12T07:20:19.501Z,82
2022-09-12T07:25:19.501Z,82
2022-09-12T07:30:19.492Z,82
2022-09-12T07:35:19.474Z,82
2022-09-12T07:40:16.931Z,82
2022-09-12T07:45:19.512Z,83
2022-09-12T07:50:19.480Z,83
2022-09-12T07:55:19.566Z,83
2022-09-12T08:00:16.581Z,83
2022-09-12T08:05:16.540Z,84
2022-09-12T08:10:16.514Z,84
2022-09-12T08:15:16.877Z,84
2022-09-12T08:20:16.326Z,84
2022-09-12T08:25:16.544Z,84
2022-09-12T08:30:16.608Z,85
2022-09-12T08:35:16.569Z,85
2022-09-12T08:40:16.614Z,85
2022-09-12T08:45:16.568Z,85
2022-09-12T08:50:16.920Z,85
2022-09-12T08:55:16.571Z,85
2022-09-12T09:00:16.540Z,85
2022-09-12T09:05:19.550Z,86
2022-09-12T09:10:16.540Z,86
2022-09-12T09:15:19.570Z,86
2022-09-12T09:20:21.125Z,86
2022-09-12T09:25:20.846Z,86
2022-09-12T09:30:19.592Z,86
2022-09-12T09:35:19.550Z,86
2022-09-12T09:40:16.653Z,87
2022-09-12T09:45:19.561Z,87
2022-09-12T09:50:19.522Z,87
2022-09-12T09:55:19.896Z,87
2022-09-12T10:00:19.564Z,87
2022-09-12T10:05:19.530Z,87
2022-09-12T10:10:19.560Z,87
2022-09-12T10:15:19.540Z,87
2022-09-12T10:20:21.971Z,88
2022-09-12T10:25:19.574Z,88
2022-09-12T10:30:20.067Z,88
2022-09-12T10:35:19.540Z,88
2022-09-12T10:40:19.545Z,88
2022-09-12T10:45:19.594Z,88
2022-09-12T10:50:22.843Z,88
2022-09-12T10:55:16.638Z,88
2022-09-12T11:00:16.584Z,88
2022-09-12T11:05:21.985Z,88
2022-09-12T11:10:16.590Z,89
2022-09-12T11:15:16.620Z,89
2022-09-12T11:20:16.613Z,89
2022-09-12T11:25:16.640Z,89
2022-09-12T11:30:19.596Z,89
2022-09-12T11:35:19.964Z,89
2022-09-12T11:40:19.684Z,89
2022-09-12T11:45:19.587Z,89
2022-09-12T11:50:19.560Z,90
2022-09-12T11:55:19.611Z,90
2022-09-12T12:00:19.586Z,90
2022-09-12T12:05:19.670Z,90
2022-09-12T12:10:20.156Z,90
2022-09-12T12:15:19.604Z,90
2022-09-12T12:20:19.613Z,90
2022-09-12T12:25:22.400Z,90
2022-09-12T12:30:19.634Z,90
2022-09-12T12:35:19.584Z,90
2022-09-12T12:40:19.635Z,90
2022-09-12T12:45:19.997Z,89
2022-09-12T12:50:16.628Z,89
2022-09-12T12:55:16.678Z,88
2022-09-12T13:00:16.637Z,88
2022-09-12T13:05:16.665Z,88
2022-09-12T13:10:16.623Z,87
2022-09-12T13:15:16.660Z,86
2022-09-12T13:20:28.981Z,86
2022-09-12T13:25:19.657Z,86
2022-09-12T13:30:19.628Z,86
2022-09-12T13:35:19.588Z,85
2022-09-12T13:40:19.701Z,84
2022-09-12T13:45:19.624Z,84
2022-09-12T13:50:19.603Z,84
2022-09-12T13:55:20.152Z,84
2022-09-12T14:00:16.671Z,84
2022-09-12T14:05:16.655Z,84
2022-09-12T14:10:16.680Z,84
2022-09-12T14:15:16.687Z,84
2022-09-12T14:20:16.668Z,84
2022-09-12T14:25:16.681Z,84
2022-09-12T14:30:17.035Z,83
2022-09-12T14:35:19.692Z,83
2022-09-12T14:40:19.713Z,83
2022-09-12T14:45:19.637Z,83
2022-09-12T14:50:19.670Z,83
2022-09-12T14:55:19.716Z,82
2022-09-12T15:00:20.156Z,83
2022-09-12T15:05:19.656Z,82
2022-09-12T15:10:19.637Z,83
2022-09-12T15:15:19.669Z,83
2022-09-12T15:20:19.676Z,82
2022-09-12T15:25:19.682Z,83
2022-09-12T15:30:16.589Z,82
2022-09-12T15:35:17.086Z,82
2022-09-12T15:40:16.786Z,82
2022-09-12T15:45:16.706Z,82
2022-09-12T15:50:16.686Z,81
2022-09-12T15:55:16.723Z,81
2022-09-12T16:00:19.674Z,81
2022-09-12T16:05:20.264Z,81
2022-09-12T16:10:19.704Z,81
2022-09-12T16:15:19.704Z,81
2022-09-12T16:20:19.701Z,81
2022-09-12T16:25:19.689Z,81
2022-09-12T16:30:19.692Z,81
2022-09-12T16:35:19.723Z,81
2022-09-12T16:40:20.197Z,81
2022-09-12T16:45:19.672Z,81
2022-09-12T16:50:16.765Z,81
2022-09-12T16:55:19.708Z,80
2022-09-12T17:00:19.689Z,79
2022-09-12T17:05:19.686Z,79
2022-09-12T17:10:19.708Z,79
2022-09-12T17:15:20.210Z,79
2022-09-12T17:20:16.732Z,79
2022-09-12T17:25:16.737Z,78
2022-09-12T17:30:19.788Z,78
2022-09-12T17:35:16.744Z,77
2022-09-12T17:40:16.804Z,77
2022-09-12T17:45:18.519Z,77
2022-09-12T17:50:31.256Z,76
2022-09-12T17:55:16.751Z,76
2022-09-12T18:00:19.762Z,75
2022-09-12T18:05:19.732Z,74
2022-09-12T18:10:19.715Z,75
2022-09-12T18:15:19.732Z,74
2022-09-12T18:20:20.207Z,75
2022-09-12T18:25:19.747Z,75
2022-09-12T18:30:21.531Z,74
2022-09-12T18:35:19.744Z,74
2022-09-12T18:40:19.763Z,74
2022-09-12T18:45:19.767Z,74
2022-09-12T18:50:19.726Z,75
2022-09-12T18:55:20.280Z,74
2022-09-12T19:00:19.736Z,74
2022-09-12T19:05:19.724Z,73
2022-09-12T19:10:19.778Z,73
2022-09-12T19:15:19.764Z,73
2022-09-12T19:20:19.737Z,73
2022-09-12T19:25:16.663Z,72
2022-09-12T19:30:20.266Z,72
2022-09-12T19:35:19.779Z,72
2022-09-12T19:40:19.790Z,71
2022-09-12T19:45:19.790Z,72
2022-09-12T19:50:19.766Z,72
2022-09-12T19:55:19.773Z,72
2022-09-12T20:00:19.728Z,71
2022-09-12T20:05:20.181Z,71
2022-09-12T20:10:19.782Z,72
2022-09-12T20:15:19.798Z,72
2022-09-12T20:20:19.757Z,72
2022-09-12T20:25:19.812Z,72
2022-09-12T20:30:19.794Z,72
2022-09-12T20:35:19.751Z,71
2022-09-12T20:40:17.282Z,71
2022-09-12T20:45:16.822Z,71
2022-09-12T20:50:19.838Z,72
2022-09-12T20:55:19.812Z,72
2022-09-12T21:00:19.797Z,72
2022-09-12T21:05:19.815Z,72
2022-09-12T21:10:20.259Z,72
2022-09-12T21:15:19.805Z,72
2022-09-12T21:20:16.693Z,72
2022-09-12T21:25:16.855Z,72
2022-09-12T21:30:19.812Z,72
2022-09-12T21:35:19.811Z,72
2022-09-12T21:40:19.953Z,72
2022-09-12T21:45:20.407Z,72
2022-09-12T21:50:19.834Z,72
2022-09-12T21:55:19.808Z,72
2022-09-12T22:00:16.842Z,72
2022-09-12T22:05:19.853Z,72
2022-09-12T22:10:19.828Z,72
2022-09-12T22:15:55.348Z,72
2022-09-12T22:20:20.362Z,73
2022-09-12T22:25:19.828Z,73
2022-09-12T22:30:19.840Z,73
2022-09-12T22:35:19.856Z,73
2022-09-12T22:40:19.991Z,73
2022-09-12T22:45:19.862Z,73
2022-09-12T22:50:19.856Z,73
2022-09-12T22:55:20.389Z,73
2022-09-12T23:00:19.884Z,73
2022-09-12T23:05:19.845Z,73
2022-09-12T23:10:19.837Z,74
2022-09-12T23:15:19.871Z,73
2022-09-12T23:20:19.845Z,74
2022-09-12T23:25:16.906Z,74
2022-09-12T23:30:20.384Z,74
2022-09-12T23:35:16.903Z,74
2022-09-12T23:40:16.928Z,74
2022-09-12T23:45:16.885Z,75
2022-09-12T23:50:16.874Z,75
2022-09-12T23:55:16.917Z,76
